Time;durP1;ratioP1;P1;durP2;ratioP2;P2;SDS_P1;SDS_P2;PMS_P1;PMS_P2;Temp;Humidity;BMP_temperature;BMP_pressure;BME280_temperature;BME280_humidity;BME280_pressure;Samples;Min_cycle;Max_cycle;Signal;HPM_P1;HPM_P2
2023/08/04 00:00:18;;;;;;;1.25;0.60;;;;;;;-144.48;100.00;62369.91;5052448;28;20032;-73
2023/08/04 00:02:43;;;;;;;4.55;0.70;;;;;;;-144.48;100.00;62369.91;5052393;28;20037;-72
2023/08/04 00:05:09;;;;;;;2.20;0.70;;;;;;;-144.48;100.00;62369.91;5052092;28;20029;-71
2023/08/04 00:07:36;;;;;;;1.95;0.60;;;;;;;-144.48;100.00;62369.91;5052255;28;20024;-72
2023/08/04 00:10:03;;;;;;;1.08;0.60;;;;;;;-144.48;100.00;62369.91;5051988;28;20035;-72
2023/08/04 00:12:29;;;;;;;1.10;0.70;;;;;;;-144.48;100.00;62369.91;5052304;28;20036;-72
2023/08/04 00:14:54;;;;;;;1.50;0.73;;;;;;;-144.48;100.00;62369.91;5051371;28;20017;-74
2023/08/04 00:17:20;;;;;;;1.52;0.80;;;;;;;-144.48;100.00;62369.91;5051813;28;20021;-70
2023/08/04 00:19:45;;;;;;;4.00;0.93;;;;;;;-144.48;100.00;62369.91;5051160;28;20029;-74
2023/08/04 00:22:11;;;;;;;2.42;1.30;;;;;;;-144.48;100.00;62369.91;5046162;28;20028;-73
2023/08/04 00:24:36;;;;;;;1.80;0.90;;;;;;;-144.48;100.00;62369.91;5051988;28;20275;-73
2023/08/04 00:27:02;;;;;;;1.77;0.90;;;;;;;-144.48;100.00;62369.91;5034270;28;20534;-72
2023/08/04 00:29:28;;;;;;;2.78;0.82;;;;;;;-144.48;100.00;62369.91;5050852;28;20033;-73
2023/08/04 00:31:53;;;;;;;0.60;0.60;;;;;;;-144.48;100.00;62369.91;5048471;28;20083;-71
2023/08/04 00:34:19;;;;;;;2.58;0.93;;;;;;;-144.48;100.00;62369.91;5051249;28;20060;-68
2023/08/04 00:36:45;;;;;;;1.58;0.63;;;;;;;-144.48;100.00;62369.91;5042426;28;20424;-74
2023/08/04 00:39:11;;;;;;;0.95;0.70;;;;;;;-144.48;100.00;62369.91;5050932;28;20109;-71
2023/08/04 00:41:36;;;;;;;3.47;0.73;;;;;;;-144.48;100.00;62369.91;5050916;28;20145;-73
2023/08/04 00:44:02;;;;;;;2.88;0.88;;;;;;;-144.48;100.00;62369.91;5050531;28;20121;-72
2023/08/04 00:46:29;;;;;;;1.40;0.80;;;;;;;-144.48;100.00;62369.91;5050806;28;20021;-74
2023/08/04 00:48:56;;;;;;;2.72;0.82;;;;;;;-144.48;100.00;62369.91;5050720;28;20066;-72
2023/08/04 00:51:22;;;;;;;1.13;0.70;;;;;;;-144.48;100.00;62369.91;5050750;28;20108;-71
2023/08/04 00:53:48;;;;;;;3.05;0.82;;;;;;;-144.48;100.00;62369.91;5051012;28;20016;-73
2023/08/04 00:56:14;;;;;;;1.10;0.60;;;;;;;-144.48;100.00;62369.91;5050871;28;20040;-71
2023/08/04 00:58:40;;;;;;;1.30;0.70;;;;;;;-144.48;100.00;62369.91;5051228;28;20031;-72
2023/08/04 01:01:05;;;;;;;1.35;0.70;;;;;;;-144.48;100.00;62369.91;5050502;28;20029;-73
2023/08/04 01:03:31;;;;;;;1.38;0.80;;;;;;;-144.48;100.00;62369.91;5050730;28;20032;-73
2023/08/04 01:06:11;;;;;;;0.60;0.50;;;;;;;-144.48;100.00;62369.91;5051138;28;20669;-70
2023/08/04 01:08:41;;;;;;;2.03;0.90;;;;;;;-144.48;100.00;62369.91;5051244;28;20053;-74
2023/08/04 01:11:12;;;;;;;1.38;0.90;;;;;;;-144.48;100.00;62369.91;5051380;28;20029;-72
2023/08/04 01:13:39;;;;;;;1.15;0.68;;;;;;;-144.48;100.00;62369.91;5050414;28;20032;-75
2023/08/04 01:16:05;;;;;;;1.77;0.90;;;;;;;-144.48;100.00;62369.91;5050477;28;20025;-73
2023/08/04 01:18:31;;;;;;;2.85;0.90;;;;;;;-144.48;100.00;62369.91;5032751;28;20159;-72
2023/08/04 01:21:01;;;;;;;4.22;1.08;;;;;;;-144.48;100.00;62369.91;5050819;28;20108;-68
2023/08/04 01:23:26;;;;;;;1.30;0.85;;;;;;;-144.48;100.00;62369.91;5050955;28;20116;-71
2023/08/04 01:25:52;;;;;;;4.75;1.08;;;;;;;-144.48;100.00;62369.91;5050637;28;20179;-69
2023/08/04 01:28:19;;;;;;;0.73;0.70;;;;;;;-144.48;100.00;62369.91;5050171;28;20029;-71
2023/08/04 01:30:50;;;;;;;4.35;0.82;;;;;;;-144.48;100.00;62369.91;5050740;28;20043;-72
2023/08/04 01:33:16;;;;;;;2.70;0.90;;;;;;;-144.48;100.00;62369.91;5050093;28;20063;-72
2023/08/04 01:35:42;;;;;;;6.60;1.10;;;;;;;-144.48;100.00;62369.91;5050069;28;20358;-73
2023/08/04 01:38:10;;;;;;;7.10;0.90;;;;;;;-144.48;100.00;62369.91;5030238;23;20282;-67
2023/08/04 01:40:36;;;;;;;3.25;0.90;;;;;;;-144.48;100.00;62369.91;5028281;28;20022;-65
2023/08/04 01:43:04;;;;;;;1.80;0.95;;;;;;;-144.48;100.00;62369.91;5029228;28;20029;-67
2023/08/04 01:45:32;;;;;;;2.15;0.80;;;;;;;-144.48;100.00;62369.91;5028133;28;20028;-69
2023/08/04 01:48:01;;;;;;;1.25;0.82;;;;;;;-144.48;100.00;62369.91;5028122;28;20029;-69
2023/08/04 01:50:26;;;;;;;0.93;0.70;;;;;;;-144.48;100.00;62369.91;5028240;28;20591;-67
2023/08/04 01:52:51;;;;;;;2.95;1.00;;;;;;;-144.48;100.00;62369.91;5028332;28;20025;-68
2023/08/04 01:55:17;;;;;;;3.97;1.40;;;;;;;-144.48;100.00;62369.91;5028180;28;20168;-69
2023/08/04 01:57:43;;;;;;;5.68;1.27;;;;;;;-144.48;100.00;62369.91;5028703;28;20022;-69
2023/08/04 02:00:13;;;;;;;4.15;1.17;;;;;;;-144.48;100.00;62369.91;5028569;28;20021;-69
2023/08/04 02:02:39;;;;;;;4.20;1.45;;;;;;;-144.48;100.00;62369.91;5028308;28;20028;-69
2023/08/04 02:05:05;;;;;;;3.92;1.05;;;;;;;-144.48;100.00;62369.91;5010143;28;20029;-68
2023/08/04 02:07:30;;;;;;;2.55;1.25;;;;;;;-144.48;100.00;62369.91;5027921;28;20099;-70
2023/08/04 02:09:56;;;;;;;2.92;1.50;;;;;;;-144.48;100.00;62369.91;5024892;28;20414;-69
2023/08/04 02:12:21;;;;;;;3.85;1.50;;;;;;;-144.48;100.00;62369.91;5016993;28;20021;-70
2023/08/04 02:14:47;;;;;;;6.78;1.63;;;;;;;-144.48;100.00;62369.91;5026681;28;20032;-69
2023/08/04 02:17:12;;;;;;;3.75;1.60;;;;;;;-144.48;100.00;62369.91;5027856;28;20180;-69
2023/08/04 02:19:38;;;;;;;3.17;1.75;;;;;;;-144.48;100.00;62369.91;5011970;28;20064;-68
2023/08/04 02:22:04;;;;;;;6.53;2.00;;;;;;;-144.48;100.00;62369.91;5027368;28;20021;-68
2023/08/04 02:24:29;;;;;;;6.43;2.30;;;;;;;-144.48;100.00;62369.91;5027606;28;20025;-70
2023/08/04 02:26:54;;;;;;;3.95;2.10;;;;;;;-144.48;100.00;62369.91;5027970;28;20025;-69
2023/08/04 02:29:20;;;;;;;4.47;1.80;;;;;;;-144.48;100.00;62369.91;5010180;28;20496;-68
2023/08/04 02:31:45;;;;;;;3.65;1.90;;;;;;;-144.48;100.00;62369.91;5027029;28;20048;-67
2023/08/04 02:34:10;;;;;;;4.45;1.73;;;;;;;-144.48;100.00;62369.91;5035462;28;20032;-68
2023/08/04 02:36:36;;;;;;;3.67;1.98;;;;;;;-144.48;100.00;62369.91;5032943;28;20089;-66
2023/08/04 02:39:02;;;;;;;3.80;1.65;;;;;;;-144.48;100.00;62369.91;5036187;28;20108;-68
2023/08/04 02:41:27;;;;;;;2.00;1.25;;;;;;;-144.48;100.00;62369.91;5028062;28;20037;-70
2023/08/04 02:44:03;;;;;;;4.60;1.60;;;;;;;-144.48;100.00;62369.91;5027000;28;20026;-68
2023/08/04 02:46:29;;;;;;;5.22;2.20;;;;;;;-144.48;100.00;62369.91;5010148;28;20029;-69
2023/08/04 02:49:01;;;;;;;4.80;1.75;;;;;;;-144.48;100.00;62369.91;5028010;28;20296;-69
2023/08/04 02:51:30;;;;;;;10.13;1.63;;;;;;;-144.48;100.00;62369.91;5028228;28;20305;-69
2023/08/04 02:53:55;;;;;;;3.38;1.40;;;;;;;-144.48;100.00;62369.91;5027833;28;20233;-66
2023/08/04 02:56:20;;;;;;;4.20;1.95;;;;;;;-144.48;100.00;62369.91;5027495;28;20100;-67
2023/08/04 02:58:47;;;;;;;7.82;2.20;;;;;;;-144.48;100.00;62369.91;5027795;28;20030;-69
2023/08/04 03:01:13;;;;;;;6.05;2.53;;;;;;;-144.48;100.00;62369.91;5030525;28;20025;-70
2023/08/04 03:03:39;;;;;;;5.82;2.50;;;;;;;-144.48;100.00;62369.91;5031177;28;20079;-70
2023/08/04 03:06:04;;;;;;;4.15;2.25;;;;;;;-144.48;100.00;62369.91;5031520;28;20506;-66
2023/08/04 03:08:33;;;;;;;4.03;2.50;;;;;;;-144.48;100.00;62369.91;5030377;28;20565;-68
2023/08/04 03:10:59;;;;;;;6.55;2.53;;;;;;;-144.48;100.00;62369.91;5027399;28;20044;-69
2023/08/04 03:13:25;;;;;;;4.40;2.55;;;;;;;-144.48;100.00;62369.91;5031532;28;20456;-66
2023/08/04 03:15:58;;;;;;;5.13;2.78;;;;;;;-144.48;100.00;62369.91;5021975;28;20537;-70
2023/08/04 03:18:24;;;;;;;4.70;2.63;;;;;;;-144.48;100.00;62369.91;5032517;28;20052;-68
2023/08/04 03:20:49;;;;;;;5.32;2.63;;;;;;;-144.48;100.00;62369.91;5030919;28;20504;-70
2023/08/04 03:23:15;;;;;;;4.55;2.55;;;;;;;-144.48;100.00;62369.91;5031222;28;20033;-66
2023/08/04 03:25:40;;;;;;;3.85;2.08;;;;;;;-144.48;100.00;62369.91;5031261;28;20090;-69
2023/08/04 03:28:06;;;;;;;5.85;2.60;;;;;;;-144.48;100.00;62369.91;5030351;28;20110;-67
2023/08/04 03:30:31;;;;;;;5.57;2.38;;;;;;;-144.48;100.00;62369.91;5031009;28;20152;-69
2023/08/04 03:32:57;;;;;;;4.55;2.20;;;;;;;-144.48;100.00;62369.91;5012056;28;20031;-65
2023/08/04 03:35:22;;;;;;;4.50;2.28;;;;;;;-144.48;100.00;62369.91;5042400;28;20166;-69
2023/08/04 03:37:48;;;;;;;4.18;1.73;;;;;;;-144.48;100.00;62369.91;5038389;28;20116;-66
2023/08/04 03:40:14;;;;;;;5.93;2.10;;;;;;;-144.48;100.00;62369.91;5031115;28;20059;-69
2023/08/04 03:42:40;;;;;;;5.57;1.92;;;;;;;-144.48;100.00;62369.91;5012983;28;20091;-67
2023/08/04 03:45:06;;;;;;;3.92;1.90;;;;;;;-144.48;100.00;62369.91;5030504;28;20025;-64
2023/08/04 03:47:33;;;;;;;2.92;1.50;;;;;;;-144.48;100.00;62369.91;5030447;28;20026;-69
2023/08/04 03:49:58;;;;;;;2.58;1.48;;;;;;;-144.48;100.00;62369.91;5030528;28;20107;-70
2023/08/04 03:52:24;;;;;;;3.25;1.88;;;;;;;-144.48;100.00;62369.91;5012514;28;20060;-68
2023/08/04 03:54:49;;;;;;;2.75;1.42;;;;;;;-144.48;100.00;62369.91;5030677;28;20071;-70
2023/08/04 03:57:15;;;;;;;4.40;1.63;;;;;;;-144.48;100.00;62369.91;5030414;28;20080;-68
2023/08/04 03:59:40;;;;;;;3.47;1.65;;;;;;;-144.48;100.00;62369.91;5030299;28;20036;-67
2023/08/04 04:02:06;;;;;;;4.43;1.48;;;;;;;-144.48;100.00;62369.91;5030283;28;20329;-68
2023/08/04 04:04:31;;;;;;;6.57;2.17;;;;;;;-144.48;100.00;62369.91;5026988;28;20026;-69
2023/08/04 04:06:57;;;;;;;3.60;1.65;;;;;;;-144.48;100.00;62369.91;5030253;28;20040;-67
2023/08/04 04:09:22;;;;;;;2.47;1.73;;;;;;;-144.48;100.00;62369.91;5029152;28;20549;-69
2023/08/04 04:11:47;;;;;;;4.50;1.80;;;;;;;-144.48;100.00;62369.91;5028511;28;20456;-70
2023/08/04 04:14:13;;;;;;;5.55;2.03;;;;;;;-144.48;100.00;62369.91;5028986;28;20021;-70
2023/08/04 04:16:38;;;;;;;9.13;1.98;;;;;;;-144.48;100.00;62369.91;5031293;28;20040;-69
2023/08/04 04:19:03;;;;;;;5.55;2.08;;;;;;;-144.48;100.00;62369.91;5033874;28;20341;-68
2023/08/04 04:21:29;;;;;;;5.32;1.88;;;;;;;-144.48;100.00;62369.91;5011768;28;20044;-69
2023/08/04 04:23:54;;;;;;;4.80;2.03;;;;;;;-144.48;100.00;62369.91;5029439;28;20032;-69
2023/08/04 04:26:19;;;;;;;3.22;1.80;;;;;;;-144.48;100.00;62369.91;5030227;28;20025;-68
2023/08/04 04:28:45;;;;;;;6.25;1.85;;;;;;;-144.48;100.00;62369.91;5027154;28;20392;-69
2023/08/04 04:31:10;;;;;;;4.85;1.90;;;;;;;-144.48;100.00;62369.91;5029342;28;20201;-70
2023/08/04 04:33:36;;;;;;;5.07;1.90;;;;;;;-144.48;100.00;62369.91;5029092;28;20041;-70
2023/08/04 04:36:01;;;;;;;2.78;1.73;;;;;;;-144.48;100.00;62369.91;5038751;28;20037;-69
2023/08/04 04:38:28;;;;;;;4.18;1.80;;;;;;;-144.48;100.00;62369.91;5043867;28;20057;-71
2023/08/04 04:40:57;;;;;;;3.13;1.83;;;;;;;-144.48;100.00;62369.91;5030827;28;20029;-66
2023/08/04 04:43:24;;;;;;;4.22;1.80;;;;;;;-144.48;100.00;62369.91;5029844;28;20021;-68
2023/08/04 04:45:50;;;;;;;4.13;1.83;;;;;;;-144.48;100.00;62369.91;5029068;28;20041;-70
2023/08/04 04:48:19;;;;;;;5.20;2.08;;;;;;;-144.48;100.00;62369.91;5029769;28;20032;-67
2023/08/04 04:50:44;;;;;;;6.13;1.77;;;;;;;-144.48;100.00;62369.91;5029427;28;20025;-66
2023/08/04 04:53:10;;;;;;;4.25;1.83;;;;;;;-144.48;100.00;62369.91;5031258;28;20380;-67
2023/08/04 04:55:36;;;;;;;7.20;2.13;;;;;;;-144.48;100.00;62369.91;5029345;28;20471;-69
2023/08/04 04:58:01;;;;;;;7.82;2.67;;;;;;;-144.48;100.00;62369.91;5029610;28;20021;-71
2023/08/04 05:00:27;;;;;;;4.30;2.22;;;;;;;-144.48;100.00;62369.91;5029075;28;20068;-68
2023/08/04 05:02:53;;;;;;;7.13;2.80;;;;;;;-144.48;100.00;62369.91;5011153;28;20033;-66
2023/08/04 05:05:18;;;;;;;5.75;2.83;;;;;;;-144.48;100.00;62369.91;5012671;28;20026;-68
2023/08/04 05:07:43;;;;;;;5.90;2.92;;;;;;;-144.48;100.00;62369.91;5038382;28;20020;-69
2023/08/04 05:10:09;;;;;;;9.07;3.65;;;;;;;-144.48;100.00;62369.91;5034500;28;20502;-69
2023/08/04 05:12:35;;;;;;;8.40;3.92;;;;;;;-144.48;100.00;62369.91;5036172;28;20476;-67
2023/08/04 05:15:00;;;;;;;7.90;4.22;;;;;;;-144.48;100.00;62369.91;5035147;28;20471;-68
2023/08/04 05:17:26;;;;;;;8.43;3.95;;;;;;;-144.48;100.00;62369.91;5038941;28;20333;-69
2023/08/04 05:19:51;;;;;;;9.13;4.07;;;;;;;-144.48;100.00;62369.91;5040078;28;20091;-71
2023/08/04 05:22:17;;;;;;;8.25;3.45;;;;;;;-144.48;100.00;62369.91;5040120;28;20033;-69
2023/08/04 05:24:42;;;;;;;7.72;4.00;;;;;;;-144.48;100.00;62369.91;5037298;28;20079;-67
2023/08/04 05:27:08;;;;;;;7.45;4.10;;;;;;;-144.48;100.00;62369.91;5036284;28;21364;-69
2023/08/04 05:29:34;;;;;;;5.50;3.40;;;;;;;-144.48;100.00;62369.91;5035173;28;20021;-68
2023/08/04 05:32:00;;;;;;;8.85;2.88;;;;;;;-144.48;100.00;62369.91;5035647;28;20032;-67
2023/08/04 05:34:25;;;;;;;6.03;2.70;;;;;;;-144.48;100.00;62369.91;5027942;28;20064;-65
2023/08/04 05:36:51;;;;;;;9.48;2.70;;;;;;;-144.48;100.00;62369.91;5027584;28;20025;-71
2023/08/04 05:39:17;;;;;;;6.97;2.55;;;;;;;-144.48;100.00;62369.91;5032253;28;20075;-70
2023/08/04 05:41:44;;;;;;;3.47;1.60;;;;;;;-144.48;100.00;62369.91;5028544;28;20548;-64
2023/08/04 05:44:09;;;;;;;5.88;2.00;;;;;;;-144.48;100.00;62369.91;5028437;28;20407;-72
2023/08/04 05:46:35;;;;;;;5.35;2.10;;;;;;;-144.48;100.00;62369.91;5010565;28;20037;-68
2023/08/04 05:49:00;;;;;;;3.88;2.30;;;;;;;-144.48;100.00;62369.91;5028069;28;20033;-70
2023/08/04 05:51:25;;;;;;;6.03;2.45;;;;;;;-144.48;100.00;62369.91;5028477;28;20116;-70
2023/08/04 05:53:51;;;;;;;3.75;2.15;;;;;;;-144.48;100.00;62369.91;5027727;28;20025;-70
2023/08/04 05:56:16;;;;;;;6.53;2.50;;;;;;;-144.48;100.00;62369.91;5028093;28;20044;-70
2023/08/04 05:58:42;;;;;;;9.50;4.22;;;;;;;-144.48;100.00;62369.91;5028027;28;20424;-65
2023/08/04 06:01:07;;;;;;;5.30;2.42;;;;;;;-144.48;100.00;62369.91;5028747;28;20691;-69
2023/08/04 06:03:32;;;;;;;4.32;2.42;;;;;;;-144.48;100.00;62369.91;5027975;28;20044;-70
2023/08/04 06:05:58;;;;;;;7.90;2.50;;;;;;;-144.48;100.00;62369.91;5028435;28;20030;-69
2023/08/04 06:08:24;;;;;;;7.25;2.42;;;;;;;-144.48;100.00;62369.91;5028243;28;20032;-68
2023/08/04 06:10:49;;;;;;;4.50;2.33;;;;;;;-144.48;100.00;62369.91;5027683;28;20021;-69
2023/08/04 06:13:15;;;;;;;7.68;2.38;;;;;;;-144.48;100.00;62369.91;5027317;28;20475;-68
2023/08/04 06:15:40;;;;;;;7.50;2.90;;;;;;;-144.48;100.00;62369.91;5028042;28;20025;-69
2023/08/04 06:18:06;;;;;;;6.43;2.25;;;;;;;-144.48;100.00;62369.91;5031201;28;20116;-68
2023/08/04 06:20:32;;;;;;;5.30;2.60;;;;;;;-144.48;100.00;62369.91;5034944;28;20081;-67
2023/08/04 06:22:57;;;;;;;5.57;2.65;;;;;;;-144.48;100.00;62369.91;5028213;28;20029;-67
2023/08/04 06:25:23;;;;;;;8.88;2.88;;;;;;;-144.48;100.00;62369.91;5028549;28;20498;-67
2023/08/04 06:27:49;;;;;;;6.95;2.95;;;;;;;-144.48;100.00;62369.91;5027208;28;20079;-69
2023/08/04 06:30:16;;;;;;;10.75;2.95;;;;;;;-144.48;100.00;62369.91;5028393;28;20450;-68
2023/08/04 06:32:41;;;;;;;8.40;3.03;;;;;;;-144.48;100.00;62369.91;5027795;28;20471;-67
2023/08/04 06:35:07;;;;;;;7.03;2.92;;;;;;;-144.48;100.00;62369.91;5032059;28;20116;-67
2023/08/04 06:37:34;;;;;;;8.77;3.10;;;;;;;-144.48;100.00;62369.91;5037481;28;20087;-69
2023/08/04 06:39:59;;;;;;;6.32;2.70;;;;;;;-144.48;100.00;62369.91;5028282;28;20030;-69
2023/08/04 06:42:24;;;;;;;10.00;3.58;;;;;;;-144.48;100.00;62369.91;5027764;28;20025;-68
2023/08/04 06:44:50;;;;;;;6.28;3.28;;;;;;;-144.48;100.00;62369.91;5027004;28;20021;-67
2023/08/04 06:47:15;;;;;;;11.90;3.53;;;;;;;-144.48;100.00;62369.91;5027508;28;20476;-66
2023/08/04 06:49:42;;;;;;;8.57;2.95;;;;;;;-144.48;100.00;62369.91;5027461;28;20104;-66
2023/08/04 06:52:10;;;;;;;15.40;3.35;;;;;;;-144.48;100.00;62369.91;5027832;28;20040;-69
2023/08/04 06:54:37;;;;;;;7.43;3.30;;;;;;;-144.48;100.00;62369.91;5026115;28;20687;-68
2023/08/04 06:57:02;;;;;;;9.00;3.50;;;;;;;-144.48;100.00;62369.91;5024754;28;20064;-67
2023/08/04 06:59:28;;;;;;;11.90;3.35;;;;;;;-144.48;100.00;62369.91;5026522;28;20492;-70
2023/08/04 07:01:54;;;;;;;7.45;2.92;;;;;;;-144.48;100.00;62369.91;5023988;28;20129;-68
2023/08/04 07:04:19;;;;;;;6.63;2.38;;;;;;;-144.48;100.00;62369.91;5015572;28;20049;-69
2023/08/04 07:06:44;;;;;;;7.70;2.53;;;;;;;-144.48;100.00;62369.91;5026973;28;20106;-68
2023/08/04 07:09:10;;;;;;;10.80;3.45;;;;;;;-144.48;100.00;62369.91;5022127;28;20034;-66
2023/08/04 07:11:35;;;;;;;9.35;2.67;;;;;;;-144.48;100.00;62369.91;5018731;28;20424;-69
2023/08/04 07:14:01;;;;;;;9.65;3.47;;;;;;;-144.48;100.00;62369.91;4999490;28;20018;-67
2023/08/04 07:16:26;;;;;;;11.57;3.38;;;;;;;-144.48;100.00;62369.91;5026906;28;20585;-68
2023/08/04 07:18:51;;;;;;;8.77;3.90;;;;;;;-144.48;100.00;62369.91;5023666;28;20128;-69
2023/08/04 07:21:17;;;;;;;9.43;3.85;;;;;;;-144.48;100.00;62369.91;5018837;28;20033;-69
2023/08/04 07:23:42;;;;;;;15.27;4.38;;;;;;;-144.48;100.00;62369.91;5026733;28;20129;-66
2023/08/04 07:26:08;;;;;;;9.63;4.18;;;;;;;-144.48;100.00;62369.91;5026552;28;20188;-70
2023/08/04 07:28:35;;;;;;;9.07;3.50;;;;;;;-144.48;100.00;62369.91;5022809;28;20184;-70
2023/08/04 07:31:05;;;;;;;9.43;4.00;;;;;;;-144.48;100.00;62369.91;5028474;28;20021;-67
2023/08/04 07:33:30;;;;;;;17.65;4.30;;;;;;;-144.48;100.00;62369.91;5025314;28;20483;-67
2023/08/04 07:35:56;;;;;;;8.35;3.90;;;;;;;-144.48;100.00;62369.91;5026784;28;20285;-69
2023/08/04 07:38:22;;;;;;;14.48;4.28;;;;;;;-144.48;100.00;62369.91;5049075;22;20051;-68
2023/08/04 07:40:49;;;;;;;13.70;3.72;;;;;;;-144.48;100.00;62369.91;5046888;28;20029;-67
2023/08/04 07:43:14;;;;;;;10.45;4.30;;;;;;;-144.48;100.00;62369.91;5044629;28;20405;-67
2023/08/04 07:45:40;;;;;;;9.63;4.15;;;;;;;-144.48;100.00;62369.91;5047399;28;20029;-69
2023/08/04 07:48:05;;;;;;;8.90;4.03;;;;;;;-144.48;100.00;62369.91;5051939;28;20017;-67
2023/08/04 07:50:31;;;;;;;11.35;3.97;;;;;;;-144.48;100.00;62369.91;5047612;28;20418;-69
2023/08/04 07:52:56;;;;;;;13.63;4.05;;;;;;;-144.48;100.00;62369.91;5045862;28;20036;-70
2023/08/04 07:55:22;;;;;;;9.68;3.58;;;;;;;-144.48;100.00;62369.91;5028900;28;20025;-69
2023/08/04 07:57:48;;;;;;;13.23;4.10;;;;;;;-144.48;100.00;62369.91;5047547;28;20031;-69
2023/08/04 08:00:13;;;;;;;8.70;4.22;;;;;;;-144.48;100.00;62369.91;5048418;28;20504;-68
2023/08/04 08:02:39;;;;;;;15.45;5.18;;;;;;;-144.48;100.00;62369.91;5045044;28;20037;-68
2023/08/04 08:05:05;;;;;;;9.50;4.70;;;;;;;-144.48;100.00;62369.91;5050152;28;20048;-68
2023/08/04 08:07:30;;;;;;;14.55;4.80;;;;;;;-144.48;100.00;62369.91;5025740;28;20043;-68
2023/08/04 08:09:56;;;;;;;14.18;5.30;;;;;;;-144.48;100.00;62369.91;5051069;28;20025;-69
2023/08/04 08:12:21;;;;;;;11.32;4.35;;;;;;;-144.48;100.00;62369.91;5047306;28;20086;-68
2023/08/04 08:14:47;;;;;;;11.00;4.80;;;;;;;-144.48;100.00;62369.91;5049016;28;20470;-69
2023/08/04 08:17:12;;;;;;;10.80;4.07;;;;;;;-144.48;100.00;62369.91;5051405;28;20331;-66
2023/08/04 08:19:37;;;;;;;11.73;3.90;;;;;;;-144.48;100.00;62369.91;5045106;28;20053;-68
2023/08/04 08:22:03;;;;;;;12.90;3.90;;;;;;;-144.48;100.00;62369.91;5040114;28;20058;-68
2023/08/04 08:24:28;;;;;;;19.23;3.95;;;;;;;-144.48;100.00;62369.91;5042030;28;20348;-65
2023/08/04 08:26:54;;;;;;;9.48;3.53;;;;;;;-144.48;100.00;62369.91;5041229;28;20060;-68
2023/08/04 08:29:19;;;;;;;10.68;3.15;;;;;;;-144.48;100.00;62369.91;5037822;28;20029;-68
2023/08/04 08:31:45;;;;;;;8.57;2.95;;;;;;;-144.48;100.00;62369.91;5048766;28;20028;-68
2023/08/04 08:34:10;;;;;;;7.13;2.97;;;;;;;-144.48;100.00;62369.91;5048873;28;20119;-69
2023/08/04 08:36:35;;;;;;;8.18;2.45;;;;;;;-144.48;100.00;62369.91;5047041;28;20035;-69
2023/08/04 08:39:01;;;;;;;7.95;2.20;;;;;;;-144.48;100.00;62369.91;5045443;28;20040;-67
2023/08/04 08:41:26;;;;;;;10.70;2.08;;;;;;;-144.48;100.00;62369.91;5040935;28;20059;-67
2023/08/04 08:43:52;;;;;;;5.32;1.73;;;;;;;-144.48;100.00;62369.91;5051336;28;20029;-66
2023/08/04 08:46:18;;;;;;;6.82;2.30;;;;;;;-144.48;100.00;62369.91;5050837;28;20033;-66
2023/08/04 08:48:46;;;;;;;3.30;1.60;;;;;;;-144.48;100.00;62369.91;5050922;28;20350;-67
2023/08/04 08:51:15;;;;;;;;;;;;;;;-144.48;100.00;62369.91;5047811;28;20516;-65
2023/08/04 08:53:42;;;;;;;;;;;;;;;-144.48;100.00;62369.91;5046578;28;19913;-68
2023/08/04 08:56:09;;;;;;;4.25;1.40;;;;;;;-144.48;100.00;62369.91;5050519;28;20075;-69
2023/08/04 08:58:35;;;;;;;6.70;2.10;;;;;;;-144.48;100.00;62369.91;5050169;28;20024;-68
2023/08/04 09:01:01;;;;;;;7.32;2.28;;;;;;;-144.48;100.00;62369.91;5050370;28;20043;-69
2023/08/04 09:03:27;;;;;;;4.93;1.88;;;;;;;-144.48;100.00;62369.91;5050364;28;20107;-68
2023/08/04 09:05:53;;;;;;;7.75;2.13;;;;;;;-144.48;100.00;62369.91;5036397;28;20159;-65
2023/08/04 09:08:18;;;;;;;6.55;1.73;;;;;;;-144.48;100.00;62369.91;5051076;28;20025;-66
2023/08/04 09:10:44;;;;;;;11.43;2.08;;;;;;;-144.48;100.00;62369.91;5045200;28;20025;-68
2023/08/04 09:13:12;;;;;;;9.65;2.08;;;;;;;-144.48;100.00;62369.91;5043927;28;20048;-68
2023/08/04 09:15:48;;;;;;;6.88;2.40;;;;;;;-144.48;100.00;62369.91;5049244;28;20092;-68
2023/08/04 09:18:43;;;;;;;5.63;1.95;;;;;;;-144.48;100.00;62369.91;5049682;28;20036;-69
2023/08/04 09:21:08;;;;;;;4.88;1.60;;;;;;;-144.48;100.00;62369.91;5036639;28;20117;-68
2023/08/04 09:23:49;;;;;;;6.22;1.80;;;;;;;-144.48;100.00;62369.91;5042928;28;20373;-65
2023/08/04 09:26:14;;;;;;;5.05;1.60;;;;;;;-144.48;100.00;62369.91;5040562;28;20029;-67
2023/08/04 09:28:40;;;;;;;5.95;1.83;;;;;;;-144.48;100.00;62369.91;5049415;28;20033;-67
2023/08/04 09:31:11;;;;;;;7.57;1.90;;;;;;;-144.48;100.00;62369.91;5047826;28;20083;-67
2023/08/04 09:33:41;;;;;;;7.43;1.98;;;;;;;-144.48;100.00;62369.91;5049492;28;20024;-67
2023/08/04 09:36:09;;;;;;;5.97;1.88;;;;;;;-144.48;100.00;62369.91;5041967;28;20044;-66
2023/08/04 09:38:37;;;;;;;10.38;2.20;;;;;;;-144.48;100.00;62369.91;5049995;28;20120;-70
2023/08/04 09:41:04;;;;;;;11.18;2.42;;;;;;;-144.48;100.00;62369.91;5047349;28;20371;-68
2023/08/04 09:43:29;;;;;;;6.93;2.10;;;;;;;-144.48;100.00;62369.91;5020969;28;20036;-66
2023/08/04 09:46:02;;;;;;;7.10;2.20;;;;;;;-144.48;100.00;62369.91;5047876;28;20025;-70
2023/08/04 09:48:28;;;;;;;8.60;2.10;;;;;;;-144.48;100.00;62369.91;5040947;28;20390;-69
2023/08/04 09:51:09;;;;;;;15.30;3.22;;;;;;;-144.48;100.00;62369.91;5045556;28;20482;-69
2023/08/04 09:53:40;;;;;;;11.60;2.65;;;;;;;-144.48;100.00;62369.91;5041244;28;20080;-67
2023/08/04 09:56:06;;;;;;;10.50;2.22;;;;;;;-144.48;100.00;62369.91;5045714;28;20025;-66
2023/08/04 09:58:32;;;;;;;5.47;1.88;;;;;;;-144.48;100.00;62369.91;5037241;28;20033;-69
2023/08/04 10:00:58;;;;;;;5.20;1.90;;;;;;;-144.48;100.00;62369.91;5041834;28;20770;-68
2023/08/04 10:03:24;;;;;;;4.53;1.50;;;;;;;-144.48;100.00;62369.91;5037904;28;20112;-69
2023/08/04 10:05:50;;;;;;;10.70;2.20;;;;;;;-144.48;100.00;62369.91;5039960;28;20034;-69
2023/08/04 10:08:16;;;;;;;5.05;1.60;;;;;;;-144.48;100.00;62369.91;5038766;28;20033;-75
2023/08/04 10:10:42;;;;;;;8.30;1.45;;;;;;;-144.48;100.00;62369.91;5046657;28;20406;-67
2023/08/04 10:13:08;;;;;;;7.97;1.70;;;;;;;-144.48;100.00;62369.91;5047449;28;20032;-69
2023/08/04 10:15:34;;;;;;;11.00;2.65;;;;;;;-144.48;100.00;62369.91;5046123;28;20048;-70
2023/08/04 10:18:00;;;;;;;6.15;1.75;;;;;;;-144.48;100.00;62369.91;5030366;28;20479;-69
2023/08/04 10:20:27;;;;;;;5.03;1.50;;;;;;;-144.48;100.00;62369.91;5030510;28;20724;-67
2023/08/04 10:22:52;;;;;;;6.85;1.67;;;;;;;-144.48;100.00;62369.91;5048527;28;20039;-68
2023/08/04 10:25:18;;;;;;;8.38;1.90;;;;;;;-144.48;100.00;62369.91;5046265;28;20033;-69
2023/08/04 10:27:48;;;;;;;3.97;1.60;;;;;;;-144.48;100.00;62369.91;5046369;28;20033;-67
2023/08/04 10:30:13;;;;;;;7.15;2.05;;;;;;;-144.48;100.00;62369.91;5043793;28;20483;-68
2023/08/04 10:32:40;;;;;;;7.00;1.60;;;;;;;-144.48;100.00;62369.91;5048926;28;20075;-67
2023/08/04 10:35:16;;;;;;;5.35;1.48;;;;;;;-144.48;100.00;62369.91;5044791;28;20040;-66
2023/08/04 10:37:45;;;;;;;5.72;1.58;;;;;;;-144.48;100.00;62369.91;5038970;28;20548;-68
2023/08/04 10:40:11;;;;;;;5.43;1.85;;;;;;;-144.48;100.00;62369.91;5048976;28;20057;-69
2023/08/04 10:42:57;;;;;;;7.82;1.80;;;;;;;-144.48;100.00;62369.91;5046870;28;20055;-66
2023/08/04 10:45:23;;;;;;;8.70;2.10;;;;;;;-144.48;100.00;62369.91;5048472;28;20025;-67
2023/08/04 10:47:53;;;;;;;4.07;1.35;;;;;;;-144.48;100.00;62369.91;5047346;28;20510;-69
2023/08/04 10:50:19;;;;;;;6.85;1.95;;;;;;;-144.48;100.00;62369.91;5048693;28;20041;-69
2023/08/04 10:52:45;;;;;;;10.00;2.00;;;;;;;-144.48;100.00;62369.91;5046342;28;20059;-68
2023/08/04 10:55:12;;;;;;;10.40;1.88;;;;;;;-144.48;100.00;62369.91;5045457;28;20040;-66
2023/08/04 10:57:39;;;;;;;14.32;1.63;;;;;;;-144.48;100.00;62369.91;5039481;28;20128;-69
2023/08/04 11:00:07;;;;;;;5.22;1.58;;;;;;;-144.48;100.00;62369.91;5043553;28;20032;-71
2023/08/04 11:02:34;;;;;;;5.53;1.57;;;;;;;-144.48;100.00;62369.91;5047258;28;20463;-70
2023/08/04 11:05:00;;;;;;;5.95;1.70;;;;;;;-144.48;100.00;62369.91;5044162;28;20033;-69